Viking Pride — VG4385 — position and weather

sailwx.info

Track history (hours):
 
Tides and Currents Weather Stations Pressure Air Temp Water Temp Dewpoint Dewpoint Depression Visibility Wind Speed Wind Dir Waves Ship Positions

Viking Pride

Last reported at 2017-Nov-19 20:47 UTC. Time now 2017-Nov-24 20:40 UTC.
Position N 49°21' W 124°21'.

Length 22 m; draft 3 m.

Type: Fishing. MMSI: 316011441.

Date/timePositionNaut miles runAvg speedWind from/ knotsBaromVisibWave heightAir tempDewpointWater temp
2017-Nov-19 20:47N 49°21' W 124°21'0 0.0
2017-Nov-19 20:09N 49°21' W 124°21'0 0.0
2017-Nov-19 19:45N 49°21' W 124°21'0 0.0
2017-Nov-19 19:29N 49°21' W 124°21'0 0.0
2017-Nov-19 18:39N 49°21' W 124°21'0 0.0
2017-Nov-19 18:21N 49°21' W 124°21'0 0.0
2017-Nov-19 17:15N 49°21' W 124°21'0 0.0
2017-Nov-19 16:59N 49°21' W 124°21'0 0.0
2017-Nov-19 16:23N 49°21' W 124°21'0 0.0
2017-Nov-19 15:56N 49°21' W 124°21'0 0.0
2017-Nov-19 15:30N 49°21' W 124°21'0 0.0
2017-Nov-19 14:52N 49°21' W 124°21'0 0.0
2017-Nov-19 14:29N 49°21' W 124°21'0 0.0
2017-Nov-19 13:11N 49°21' W 124°21'0 0.0
2017-Nov-19 12:44N 49°21' W 124°21'0 0.0
2017-Nov-19 12:16N 49°21' W 124°21'0 0.0
2017-Nov-19 11:01N 49°21' W 124°21'0 0.0
2017-Nov-19 10:43N 49°21' W 124°21'0 0.0
2017-Nov-19 10:23N 49°21' W 124°21'0 0.0
2017-Nov-19 09:56N 49°21' W 124°21'0 0.0
2017-Nov-19 09:29N 49°21' W 124°21'0 0.0
2017-Nov-19 08:45N 49°21' W 124°21'0 0.0
2017-Nov-19 08:29N 49°21' W 124°21'0 0.0
2017-Nov-19 07:59N 49°21' W 124°21'0 0.0
2017-Nov-19 07:12N 49°21' W 124°21'0 0.0
2017-Nov-19 06:46N 49°21' W 124°21'0 0.0
2017-Nov-19 06:28N 49°21' W 124°21'0 0.0
2017-Nov-19 05:51N 49°21' W 124°21'0 0.0
2017-Nov-19 05:30N 49°21' W 124°21'0 0.0
2017-Nov-19 04:53N 49°21' W 124°21'0 0.0
2017-Nov-19 03:42N 49°21' W 124°21'0 0.0
2017-Nov-19 03:29N 49°21' W 124°21'0 0.0
2017-Nov-19 00:31N 49°21' W 124°21'0 0.3
2017-Nov-19 00:30N 49°21' W 124°21'0 0.0
2017-Nov-18 23:57N 49°21' W 124°21'0 0.0
2017-Nov-18 21:57N 49°21' W 124°21'0 0.0
2017-Nov-18 21:25N 49°21' W 124°21'0 0.0
2017-Nov-18 20:54N 49°21' W 124°21'0 0.0
2017-Nov-18 20:19N 49°21' W 124°21'0 0.1
2017-Nov-18 18:31N 49°21' W 124°21'0 2.9
2017-Nov-18 18:28N 49°21' W 124°21'3 6.4
2017-Nov-18 18:00N 49°23' W 124°24'4 7.6
2017-Nov-18 17:29N 49°25' W 124°30'4 7.3
2017-Nov-18 16:59N 49°27' W 124°35'4 7.5
2017-Nov-18 16:30N 49°29' W 124°39'4 7.2
2017-Nov-18 16:00N 49°31' W 124°43'4 7.4
2017-Nov-18 15:29N 49°35' W 124°45'4 7.3
2017-Nov-18 14:58N 49°38' W 124°47'3 6.9
2017-Nov-18 14:30N 49°41' W 124°48'3 6.5
2017-Nov-18 14:00N 49°44' W 124°51'3 6.1
2017-Nov-18 13:30N 49°47' W 124°53'3 6.2
2017-Nov-18 13:00N 49°50' W 124°55'3 6.3
2017-Nov-18 12:30N 49°52' W 124°58'2 4.4
2017-Nov-18 12:00N 49°54' W 125°01'1 2.4
2017-Nov-18 11:30N 49°54' W 125°02'2 3.5
2017-Nov-18 11:00N 49°54' W 124°60'3 5.5
2017-Nov-18 10:30N 49°52' W 124°56'0 0.6
2017-Nov-18 10:00N 49°52' W 124°57'1 2.6
2017-Nov-18 09:30N 49°53' W 124°58'1 2.7
2017-Nov-18 09:00N 49°53' W 124°60'1 2.5
2017-Nov-18 08:30N 49°54' W 125°02'0 1.0
2017-Nov-18 08:00N 49°54' W 125°01'3 5.1
2017-Nov-18 07:30N 49°52' W 124°58'2 3.2
2017-Nov-18 07:00N 49°53' W 124°57'2 3.1
2017-Nov-18 06:30N 49°55' W 124°56'1 1.5
2017-Nov-18 06:00N 49°55' W 124°55'1 2.0
2017-Nov-18 05:30N 49°54' W 124°53'1 2.8
2017-Nov-18 05:00N 49°53' W 124°52'1 2.7
2017-Nov-18 04:30N 49°51' W 124°51'1 2.5
2017-Nov-18 04:00N 49°50' W 124°50'1 2.5
2017-Nov-18 03:30N 49°49' W 124°49'0 0.5
2017-Nov-18 03:00N 49°49' W 124°49'1 2.5
2017-Nov-18 02:30N 49°50' W 124°50'1 2.6
2017-Nov-18 02:00N 49°51' W 124°51'1 2.9
2017-Nov-18 01:30N 49°53' W 124°52'1 2.8
2017-Nov-18 01:00N 49°54' W 124°53'1 2.8
2017-Nov-18 00:30N 49°55' W 124°54'0 0.2
2017-Nov-18 00:00N 49°55' W 124°54'1 2.2
2017-Nov-17 23:30N 49°54' W 124°53'1 3.0
2017-Nov-17 23:00N 49°53' W 124°52'2 3.0
2017-Nov-17 22:30N 49°51' W 124°51'2 3.0
2017-Nov-17 22:00N 49°50' W 124°50'1 3.0
2017-Nov-17 21:30N 49°49' W 124°49'1 2.6
2017-Nov-17 21:00N 49°48' W 124°47'1 2.6
2017-Nov-17 20:30N 49°47' W 124°46'1 2.9
2017-Nov-17 20:00N 49°46' W 124°44'2 3.6
2017-Nov-17 19:30N 49°45' W 124°42'4 8.6
2017-Nov-17 19:00N 49°42' W 124°38'4 8.4
2017-Nov-17 18:30N 49°39' W 124°33'4 8.5
2017-Nov-17 18:00N 49°36' W 124°28'4 8.7
2017-Nov-17 17:30N 49°31' W 124°28'4 7.4
2017-Nov-17 17:00N 49°28' W 124°26'4 8.2
2017-Nov-17 16:30N 49°26' W 124°20'4 8.5
2017-Nov-17 16:00N 49°24' W 124°15'4 8.1
2017-Nov-17 15:30N 49°22' W 124°09'5 8.9
2017-Nov-17 14:58N 49°20' W 124°03'4 8.3
2017-Nov-17 14:30N 49°18' W 123°57'7 7.3
2017-Nov-17 13:29N 49°16' W 123°47'3 6.7
2017-Nov-17 13:00N 49°15' W 123°42'4 5.3
2017-Nov-17 12:15N 49°12' W 123°38'3 7.9
2017-Nov-17 11:55N 49°09' W 123°37'4 8.2
2017-Nov-17 11:26N 49°06' W 123°33'3 7.8
2017-Nov-17 11:00N 49°03' W 123°32'4 6.8
2017-Nov-17 10:27N 49°01' W 123°28'4 7.3
2017-Nov-17 09:54N 48°58' W 123°23'1 3.0
2017-Nov-17 09:25N 48°59' W 123°23'4 8.3
2017-Nov-17 08:58N 49°02' W 123°27'4 7.4
2017-Nov-17 08:28N 49°05' W 123°30'4 7.3
2017-Nov-17 07:59N 49°08' W 123°33'4 7.7
2017-Nov-17 07:29N 49°12' W 123°36'4 7.2
2017-Nov-17 06:55N 49°15' W 123°39'3 6.7
2017-Nov-17 06:29N 49°17' W 123°43'5 6.6
2017-Nov-17 05:41N 49°21' W 123°48'2 7.9
2017-Nov-17 05:29N 49°22' W 123°50'12 7.9
2017-Nov-17 03:55N 49°28' W 124°06'8 7.9
2017-Nov-17 02:56N 49°32' W 124°17'5 8.0
2017-Nov-17 02:19N 49°34' W 124°23'3 7.8
2017-Nov-17 01:59N 49°36' W 124°27'4 7.9
2017-Nov-17 01:30N 49°38' W 124°31'4 7.6
2017-Nov-17 01:00N 49°40' W 124°36'3 6.9
2017-Nov-17 00:30N 49°43' W 124°39'3 6.7
2017-Nov-17 00:00N 49°43' W 124°44'3 6.5
2017-Nov-16 23:30N 49°45' W 124°48'2 3.5
2017-Nov-16 23:00N 49°46' W 124°50'2 4.6
2017-Nov-16 22:30N 49°47' W 124°47'1 1.2
2017-Nov-16 22:00N 49°48' W 124°47'1 2.5
2017-Nov-16 21:30N 49°49' W 124°48'1 2.5
2017-Nov-16 21:00N 49°49' W 124°50'1 2.4
2017-Nov-16 20:30N 49°50' W 124°51'1 2.7
2017-Nov-16 20:00N 49°51' W 124°52'4 7.7
2017-Nov-16 19:30N 49°49' W 124°48'2 4.1
2017-Nov-16 19:00N 49°49' W 124°51'2 4.9
2017-Nov-16 18:30N 49°50' W 124°55'4 7.9
2017-Nov-16 18:00N 49°47' W 124°50'4 7.8
2017-Nov-16 17:30N 49°46' W 124°44'3 5.8
2017-Nov-16 17:00N 49°44' W 124°41'3 6.4
2017-Nov-16 16:30N 49°42' W 124°38'4 8.2
2017-Nov-16 16:00N 49°40' W 124°33'4 7.7
2017-Nov-16 15:30N 49°37' W 124°28'4 7.4
2017-Nov-16 15:00N 49°33' W 124°27'4 8.2
2017-Nov-16 14:30N 49°29' W 124°28'4 8.0
2017-Nov-16 13:59N 49°26' W 124°25'4 8.0
2017-Nov-16 13:30N 49°23' W 124°22'2 3.1
2017-Nov-16 13:00N 49°21' W 124°21'0 0.0
2017-Nov-16 12:30N 49°21' W 124°21'0 0.0
2017-Nov-16 11:59N 49°21' W 124°21'0 0.0
2017-Nov-16 11:29N 49°21' W 124°21'0 0.0
2017-Nov-16 09:36N 49°21' W 124°21'0 0.0
2017-Nov-16 09:30N 49°21' W 124°21'0 0.0
2017-Nov-16 06:02N 49°21' W 124°21'0 0.0
2017-Nov-16 05:04N 49°21' W 124°21'0 0.1
2017-Nov-16 04:58N 49°21' W 124°21'0 0.0
2017-Nov-16 04:26N 49°21' W 124°21'0 0.0
2017-Nov-16 03:56N 49°21' W 124°21'0 0.0
2017-Nov-16 03:29N 49°21' W 124°21'0 0.0
2017-Nov-16 02:59N 49°21' W 124°21'0 0.0
2017-Nov-16 02:30N 49°21' W 124°21'0 0.0
2017-Nov-16 01:59N 49°21' W 124°21'0 0.0
2017-Nov-16 01:23N 49°21' W 124°21'0 0.0
2017-Nov-16 00:57N 49°21' W 124°21'0 0.0
2017-Nov-16 00:01N 49°21' W 124°21'0 0.0
2017-Nov-15 23:58N 49°21' W 124°21'0 0.0
2017-Nov-15 23:25N 49°21' W 124°21'0 0.0
2017-Nov-15 22:57N 49°21' W 124°21'0 0.0
2017-Nov-15 22:29N 49°21' W 124°21'0 0.0
2017-Nov-15 21:20N 49°21' W 124°21'0 0.0
2017-Nov-15 20:44N 49°21' W 124°21'0 0.0
2017-Nov-15 20:25N 49°21' W 124°21'0 0.0
2017-Nov-15 19:57N 49°21' W 124°21'0 0.0
2017-Nov-15 19:30N 49°21' W 124°21'0 0.0
2017-Nov-15 18:57N 49°21' W 124°21'0 0.0
2017-Nov-15 17:41N 49°21' W 124°21'0 0.0
2017-Nov-15 17:23N 49°21' W 124°21'0 0.0
2017-Nov-15 16:54N 49°21' W 124°21'0 0.0
2017-Nov-15 16:30N 49°21' W 124°21'0 0.0
2017-Nov-15 15:15N 49°21' W 124°21'0 0.0
2017-Nov-15 15:00N 49°21' W 124°21'0 0.0
2017-Nov-15 13:13N 49°21' W 124°21'0 0.0
2017-Nov-15 13:00N 49°21' W 124°21'0 0.0
2017-Nov-15 11:22N 49°21' W 124°21'0 0.0
2017-Nov-15 10:55N 49°21' W 124°21'0 0.0
2017-Nov-15 10:26N 49°21' W 124°21'0 0.0
2017-Nov-15 03:39N 49°21' W 124°21'0 0.0
2017-Nov-15 02:35N 49°21' W 124°21'0 0.0
2017-Nov-15 02:29N 49°21' W 124°21'0 0.0
2017-Nov-15 01:51N 49°21' W 124°21'0 0.0
2017-Nov-15 01:27N 49°21' W 124°21'0 0.0
2017-Nov-15 00:58N 49°21' W 124°21'0 0.0
2017-Nov-15 00:17N 49°21' W 124°21'0 0.0
2017-Nov-14 23:47N 49°21' W 124°21'0 0.0
2017-Nov-14 23:03N 49°21' W 124°21'0 0.0
2017-Nov-14 23:00N 49°21' W 124°21'0 0.0
2017-Nov-14 22:27N 49°21' W 124°21'0 0.0
2017-Nov-14 22:00N 49°21' W 124°21'0 0.0
2017-Nov-14 21:28N 49°21' W 124°21'0 0.0
2017-Nov-14 19:07N 49°21' W 124°21'0 0.0
2017-Nov-14 18:42N 49°21' W 124°21'0 0.0
2017-Nov-14 18:27N 49°21' W 124°21'0 0.0
2017-Nov-14 17:50N 49°21' W 124°21'0 0.0
2017-Nov-14 17:21N 49°21' W 124°21'0 0.0
2017-Nov-14 15:49N 49°21' W 124°21'0 0.0
2017-Nov-14 15:00N 49°21' W 124°21'0 0.0
2017-Nov-14 14:28N 49°21' W 124°21'0 0.0
2017-Nov-14 13:52N 49°21' W 124°21'0 0.0
2017-Nov-14 13:28N 49°21' W 124°21'0 0.0
2017-Nov-14 12:36N 49°21' W 124°21'0 0.0
2017-Nov-14 10:59N 49°21' W 124°21'0 0.0
2017-Nov-14 10:30N 49°21' W 124°21'0 0.0
2017-Nov-14 10:00N 49°21' W 124°21'0 0.0
2017-Nov-14 09:30N 49°21' W 124°21'0 0.0
2017-Nov-14 09:00N 49°21' W 124°21'0 0.0
2017-Nov-14 08:30N 49°21' W 124°21'0 0.0
2017-Nov-14 08:00N 49°21' W 124°21'0 0.0
2017-Nov-14 07:29N 49°21' W 124°21'0 0.0
2017-Nov-14 07:00N 49°21' W 124°21'0 0.0
2017-Nov-14 05:20N 49°21' W 124°21'0 0.0
2017-Nov-14 04:50N 49°21' W 124°21'0 0.0
2017-Nov-14 04:21N 49°21' W 124°21'0 0.0
2017-Nov-14 04:00N 49°21' W 124°21'0 0.0
2017-Nov-14 03:30N 49°21' W 124°21'0 0.0
2017-Nov-14 03:00N 49°21' W 124°21'0 0.0
2017-Nov-13 23:18N 49°21' W 124°21'0 0.0
2017-Nov-13 22:54N 49°21' W 124°21'0 0.0
2017-Nov-13 22:16N 49°21' W 124°21'0 0.0
2017-Nov-13 21:58N 49°21' W 124°21'0 0.0
2017-Nov-12 23:12N 49°21' W 124°21'0 0.0
2017-Nov-12 23:00N 49°21' W 124°21'0 0.0
2017-Nov-12 22:30N 49°21' W 124°21'0 0.0
2017-Nov-12 22:00N 49°21' W 124°21'0 0.0
2017-Nov-12 21:30N 49°21' W 124°21'0 0.0
2017-Nov-12 20:51N 49°21' W 124°21'0 0.0
2017-Nov-12 20:30N 49°21' W 124°21'0 0.0
2017-Nov-12 19:56N 49°21' W 124°21'0 0.0
2017-Nov-12 19:23N 49°21' W 124°21'0 0.0
2017-Nov-12 17:38N 49°21' W 124°21'0 0.0
2017-Nov-12 17:29N 49°21' W 124°21'0 0.0
2017-Nov-12 10:14N 49°21' W 124°21'0 0.0
2017-Nov-12 09:52N 49°21' W 124°21'0 0.0
2017-Nov-11 23:18N 49°21' W 124°21'0 0.0
2017-Nov-11 21:34N 49°21' W 124°21'0 0.0
2017-Nov-11 21:20N 49°21' W 124°21'0 0.0
2017-Nov-11 19:52N 49°21' W 124°21'0 0.0
2017-Nov-11 19:30N 49°21' W 124°21'0 0.0
2017-Nov-11 18:55N 49°21' W 124°21'0 0.0
2017-Nov-11 18:30N 49°21' W 124°21'0 0.0
2017-Nov-11 17:57N 49°21' W 124°21'0 0.0
2017-Nov-11 17:29N 49°21' W 124°21'0 0.0
2017-Nov-11 16:55N 49°21' W 124°21'0 0.0
2017-Nov-11 16:16N 49°21' W 124°21'0 0.0
2017-Nov-11 15:59N 49°21' W 124°21'0 0.0
2017-Nov-11 15:30N 49°21' W 124°21'0 0.0
2017-Nov-11 14:58N 49°21' W 124°21'0 0.0
2017-Nov-11 14:28N 49°21' W 124°21'0 0.0
2017-Nov-11 07:08N 49°21' W 124°21'0 0.0
2017-Nov-11 06:57N 49°21' W 124°21'0 0.0
2017-Nov-11 06:30N 49°21' W 124°21'0 0.0
2017-Nov-11 05:51N 49°21' W 124°21'0 0.0
2017-Nov-11 05:23N 49°21' W 124°21'0 0.0
2017-Nov-11 04:42N 49°21' W 124°21'0 0.0
2017-Nov-11 04:01N 49°21' W 124°21'0 0.0
2017-Nov-11 03:41N 49°21' W 124°21'0 0.0
2017-Nov-11 03:22N 49°21' W 124°21'0 0.0
2017-Nov-10 20:49N 49°21' W 124°21'0 0.0
2017-Nov-10 02:54N 49°21' W 124°21'0 0.0
2017-Nov-10 02:26N 49°21' W 124°21'0 0.0
2017-Nov-10 02:00N 49°21' W 124°21'0 0.0
2017-Nov-10 01:29N 49°21' W 124°21'0 0.0
2017-Nov-10 01:00N 49°21' W 124°21'0 0.0
2017-Nov-10 00:30N 49°21' W 124°21'0 0.3
2017-Nov-09 23:54N 49°21' W 124°21'3 7.0
2017-Nov-09 23:30N 49°23' W 124°19'0 0.7
2017-Nov-09 23:00N 49°24' W 124°19'2 4.7
2017-Nov-09 22:30N 49°24' W 124°22'3 6.2
2017-Nov-09 22:00N 49°26' W 124°26'3 6.3
2017-Nov-09 21:30N 49°26' W 124°31'2 3.9
2017-Nov-09 21:00N 49°25' W 124°29'  
Track history (hours):
 
Tides and Currents Weather Stations Pressure Air Temp Water Temp Dewpoint Dewpoint Depression Visibility Wind Speed Wind Dir Waves Ship Positions

Viking Pride

Last reported at 2017-Nov-19 20:47 UTC. Time now 2017-Nov-24 20:40 UTC.
Position N 49°21' W 124°21'.

Length 22 m; draft 3 m.

Type: Fishing. MMSI: 316011441.

Date/timePositionNaut miles runAvg speedWind from/ knotsBaromVisibWave heightAir tempDewpointWater temp
2017-Nov-19 20:47N 49°21' W 124°21'0 0.0
2017-Nov-19 20:09N 49°21' W 124°21'0 0.0
2017-Nov-19 19:45N 49°21' W 124°21'0 0.0
2017-Nov-19 19:29N 49°21' W 124°21'0 0.0
2017-Nov-19 18:39N 49°21' W 124°21'0 0.0
2017-Nov-19 18:21N 49°21' W 124°21'0 0.0
2017-Nov-19 17:15N 49°21' W 124°21'0 0.0
2017-Nov-19 16:59N 49°21' W 124°21'0 0.0
2017-Nov-19 16:23N 49°21' W 124°21'0 0.0
2017-Nov-19 15:56N 49°21' W 124°21'0 0.0
2017-Nov-19 15:30N 49°21' W 124°21'0 0.0
2017-Nov-19 14:52N 49°21' W 124°21'0 0.0
2017-Nov-19 14:29N 49°21' W 124°21'0 0.0
2017-Nov-19 13:11N 49°21' W 124°21'0 0.0
2017-Nov-19 12:44N 49°21' W 124°21'0 0.0
2017-Nov-19 12:16N 49°21' W 124°21'0 0.0
2017-Nov-19 11:01N 49°21' W 124°21'0 0.0
2017-Nov-19 10:43N 49°21' W 124°21'0 0.0
2017-Nov-19 10:23N 49°21' W 124°21'0 0.0
2017-Nov-19 09:56N 49°21' W 124°21'0 0.0
2017-Nov-19 09:29N 49°21' W 124°21'0 0.0
2017-Nov-19 08:45N 49°21' W 124°21'0 0.0
2017-Nov-19 08:29N 49°21' W 124°21'0 0.0
2017-Nov-19 07:59N 49°21' W 124°21'0 0.0
2017-Nov-19 07:12N 49°21' W 124°21'0 0.0
2017-Nov-19 06:46N 49°21' W 124°21'0 0.0
2017-Nov-19 06:28N 49°21' W 124°21'0 0.0
2017-Nov-19 05:51N 49°21' W 124°21'0 0.0
2017-Nov-19 05:30N 49°21' W 124°21'0 0.0
2017-Nov-19 04:53N 49°21' W 124°21'0 0.0
2017-Nov-19 03:42N 49°21' W 124°21'0 0.0
2017-Nov-19 03:29N 49°21' W 124°21'0 0.0
2017-Nov-19 00:31N 49°21' W 124°21'0 0.3
2017-Nov-19 00:30N 49°21' W 124°21'0 0.0
2017-Nov-18 23:57N 49°21' W 124°21'0 0.0
2017-Nov-18 21:57N 49°21' W 124°21'0 0.0
2017-Nov-18 21:25N 49°21' W 124°21'0 0.0
2017-Nov-18 20:54N 49°21' W 124°21'0 0.0
2017-Nov-18 20:19N 49°21' W 124°21'0 0.1
2017-Nov-18 18:31N 49°21' W 124°21'0 2.9
2017-Nov-18 18:28N 49°21' W 124°21'3 6.4
2017-Nov-18 18:00N 49°23' W 124°24'4 7.6
2017-Nov-18 17:29N 49°25' W 124°30'4 7.3
2017-Nov-18 16:59N 49°27' W 124°35'4 7.5
2017-Nov-18 16:30N 49°29' W 124°39'4 7.2
2017-Nov-18 16:00N 49°31' W 124°43'4 7.4
2017-Nov-18 15:29N 49°35' W 124°45'4 7.3
2017-Nov-18 14:58N 49°38' W 124°47'3 6.9
2017-Nov-18 14:30N 49°41' W 124°48'3 6.5
2017-Nov-18 14:00N 49°44' W 124°51'3 6.1
2017-Nov-18 13:30N 49°47' W 124°53'3 6.2
2017-Nov-18 13:00N 49°50' W 124°55'3 6.3
2017-Nov-18 12:30N 49°52' W 124°58'2 4.4
2017-Nov-18 12:00N 49°54' W 125°01'1 2.4
2017-Nov-18 11:30N 49°54' W 125°02'2 3.5
2017-Nov-18 11:00N 49°54' W 124°60'3 5.5
2017-Nov-18 10:30N 49°52' W 124°56'0 0.6
2017-Nov-18 10:00N 49°52' W 124°57'1 2.6
2017-Nov-18 09:30N 49°53' W 124°58'1 2.7
2017-Nov-18 09:00N 49°53' W 124°60'1 2.5
2017-Nov-18 08:30N 49°54' W 125°02'0 1.0
2017-Nov-18 08:00N 49°54' W 125°01'3 5.1
2017-Nov-18 07:30N 49°52' W 124°58'2 3.2
2017-Nov-18 07:00N 49°53' W 124°57'2 3.1
2017-Nov-18 06:30N 49°55' W 124°56'1 1.5
2017-Nov-18 06:00N 49°55' W 124°55'1 2.0
2017-Nov-18 05:30N 49°54' W 124°53'1 2.8
2017-Nov-18 05:00N 49°53' W 124°52'1 2.7
2017-Nov-18 04:30N 49°51' W 124°51'1 2.5
2017-Nov-18 04:00N 49°50' W 124°50'1 2.5
2017-Nov-18 03:30N 49°49' W 124°49'0 0.5
2017-Nov-18 03:00N 49°49' W 124°49'1 2.5
2017-Nov-18 02:30N 49°50' W 124°50'1 2.6
2017-Nov-18 02:00N 49°51' W 124°51'1 2.9
2017-Nov-18 01:30N 49°53' W 124°52'1 2.8
2017-Nov-18 01:00N 49°54' W 124°53'1 2.8
2017-Nov-18 00:30N 49°55' W 124°54'0 0.2
2017-Nov-18 00:00N 49°55' W 124°54'1 2.2
2017-Nov-17 23:30N 49°54' W 124°53'1 3.0
2017-Nov-17 23:00N 49°53' W 124°52'2 3.0
2017-Nov-17 22:30N 49°51' W 124°51'2 3.0
2017-Nov-17 22:00N 49°50' W 124°50'1 3.0
2017-Nov-17 21:30N 49°49' W 124°49'1 2.6
2017-Nov-17 21:00N 49°48' W 124°47'1 2.6
2017-Nov-17 20:30N 49°47' W 124°46'1 2.9
2017-Nov-17 20:00N 49°46' W 124°44'2 3.6
2017-Nov-17 19:30N 49°45' W 124°42'4 8.6
2017-Nov-17 19:00N 49°42' W 124°38'4 8.4
2017-Nov-17 18:30N 49°39' W 124°33'4 8.5
2017-Nov-17 18:00N 49°36' W 124°28'4 8.7
2017-Nov-17 17:30N 49°31' W 124°28'4 7.4
2017-Nov-17 17:00N 49°28' W 124°26'4 8.2
2017-Nov-17 16:30N 49°26' W 124°20'4 8.5
2017-Nov-17 16:00N 49°24' W 124°15'4 8.1
2017-Nov-17 15:30N 49°22' W 124°09'5 8.9
2017-Nov-17 14:58N 49°20' W 124°03'4 8.3
2017-Nov-17 14:30N 49°18' W 123°57'7 7.3
2017-Nov-17 13:29N 49°16' W 123°47'3 6.7
2017-Nov-17 13:00N 49°15' W 123°42'4 5.3
2017-Nov-17 12:15N 49°12' W 123°38'3 7.9
2017-Nov-17 11:55N 49°09' W 123°37'4 8.2
2017-Nov-17 11:26N 49°06' W 123°33'3 7.8
2017-Nov-17 11:00N 49°03' W 123°32'4 6.8
2017-Nov-17 10:27N 49°01' W 123°28'4 7.3
2017-Nov-17 09:54N 48°58' W 123°23'1 3.0
2017-Nov-17 09:25N 48°59' W 123°23'4 8.3
2017-Nov-17 08:58N 49°02' W 123°27'4 7.4
2017-Nov-17 08:28N 49°05' W 123°30'4 7.3
2017-Nov-17 07:59N 49°08' W 123°33'4 7.7
2017-Nov-17 07:29N 49°12' W 123°36'4 7.2
2017-Nov-17 06:55N 49°15' W 123°39'3 6.7
2017-Nov-17 06:29N 49°17' W 123°43'5 6.6
2017-Nov-17 05:41N 49°21' W 123°48'2 7.9
2017-Nov-17 05:29N 49°22' W 123°50'12 7.9
2017-Nov-17 03:55N 49°28' W 124°06'8 7.9
2017-Nov-17 02:56N 49°32' W 124°17'5 8.0
2017-Nov-17 02:19N 49°34' W 124°23'3 7.8
2017-Nov-17 01:59N 49°36' W 124°27'4 7.9
2017-Nov-17 01:30N 49°38' W 124°31'4 7.6
2017-Nov-17 01:00N 49°40' W 124°36'3 6.9
2017-Nov-17 00:30N 49°43' W 124°39'3 6.7
2017-Nov-17 00:00N 49°43' W 124°44'3 6.5
2017-Nov-16 23:30N 49°45' W 124°48'2 3.5
2017-Nov-16 23:00N 49°46' W 124°50'2 4.6
2017-Nov-16 22:30N 49°47' W 124°47'1 1.2
2017-Nov-16 22:00N 49°48' W 124°47'1 2.5
2017-Nov-16 21:30N 49°49' W 124°48'1 2.5
2017-Nov-16 21:00N 49°49' W 124°50'1 2.4
2017-Nov-16 20:30N 49°50' W 124°51'1 2.7
2017-Nov-16 20:00N 49°51' W 124°52'4 7.7
2017-Nov-16 19:30N 49°49' W 124°48'2 4.1
2017-Nov-16 19:00N 49°49' W 124°51'2 4.9
2017-Nov-16 18:30N 49°50' W 124°55'4 7.9
2017-Nov-16 18:00N 49°47' W 124°50'4 7.8
2017-Nov-16 17:30N 49°46' W 124°44'3 5.8
2017-Nov-16 17:00N 49°44' W 124°41'3 6.4
2017-Nov-16 16:30N 49°42' W 124°38'4 8.2
2017-Nov-16 16:00N 49°40' W 124°33'4 7.7
2017-Nov-16 15:30N 49°37' W 124°28'4 7.4
2017-Nov-16 15:00N 49°33' W 124°27'4 8.2
2017-Nov-16 14:30N 49°29' W 124°28'4 8.0
2017-Nov-16 13:59N 49°26' W 124°25'4 8.0
2017-Nov-16 13:30N 49°23' W 124°22'2 3.1
2017-Nov-16 13:00N 49°21' W 124°21'0 0.0
2017-Nov-16 12:30N 49°21' W 124°21'0 0.0
2017-Nov-16 11:59N 49°21' W 124°21'0 0.0
2017-Nov-16 11:29N 49°21' W 124°21'0 0.0
2017-Nov-16 09:36N 49°21' W 124°21'0 0.0
2017-Nov-16 09:30N 49°21' W 124°21'0 0.0
2017-Nov-16 06:02N 49°21' W 124°21'0 0.0
2017-Nov-16 05:04N 49°21' W 124°21'0 0.1
2017-Nov-16 04:58N 49°21' W 124°21'0 0.0
2017-Nov-16 04:26N 49°21' W 124°21'0 0.0
2017-Nov-16 03:56N 49°21' W 124°21'0 0.0
2017-Nov-16 03:29N 49°21' W 124°21'0 0.0
2017-Nov-16 02:59N 49°21' W 124°21'0 0.0
2017-Nov-16 02:30N 49°21' W 124°21'0 0.0
2017-Nov-16 01:59N 49°21' W 124°21'0 0.0
2017-Nov-16 01:23N 49°21' W 124°21'0 0.0
2017-Nov-16 00:57N 49°21' W 124°21'0 0.0
2017-Nov-16 00:01N 49°21' W 124°21'0 0.0
2017-Nov-15 23:58N 49°21' W 124°21'0 0.0
2017-Nov-15 23:25N 49°21' W 124°21'0 0.0
2017-Nov-15 22:57N 49°21' W 124°21'0 0.0
2017-Nov-15 22:29N 49°21' W 124°21'0 0.0
2017-Nov-15 21:20N 49°21' W 124°21'0 0.0
2017-Nov-15 20:44N 49°21' W 124°21'0 0.0
2017-Nov-15 20:25N 49°21' W 124°21'0 0.0
2017-Nov-15 19:57N 49°21' W 124°21'0 0.0
2017-Nov-15 19:30N 49°21' W 124°21'0 0.0
2017-Nov-15 18:57N 49°21' W 124°21'0 0.0
2017-Nov-15 17:41N 49°21' W 124°21'0 0.0
2017-Nov-15 17:23N 49°21' W 124°21'0 0.0
2017-Nov-15 16:54N 49°21' W 124°21'0 0.0
2017-Nov-15 16:30N 49°21' W 124°21'0 0.0
2017-Nov-15 15:15N 49°21' W 124°21'0 0.0
2017-Nov-15 15:00N 49°21' W 124°21'0 0.0
2017-Nov-15 13:13N 49°21' W 124°21'0 0.0
2017-Nov-15 13:00N 49°21' W 124°21'0 0.0
2017-Nov-15 11:22N 49°21' W 124°21'0 0.0
2017-Nov-15 10:55N 49°21' W 124°21'0 0.0
2017-Nov-15 10:26N 49°21' W 124°21'0 0.0
2017-Nov-15 03:39N 49°21' W 124°21'0 0.0
2017-Nov-15 02:35N 49°21' W 124°21'0 0.0
2017-Nov-15 02:29N 49°21' W 124°21'0 0.0
2017-Nov-15 01:51N 49°21' W 124°21'0 0.0
2017-Nov-15 01:27N 49°21' W 124°21'0 0.0
2017-Nov-15 00:58N 49°21' W 124°21'0 0.0
2017-Nov-15 00:17N 49°21' W 124°21'0 0.0
2017-Nov-14 23:47N 49°21' W 124°21'0 0.0
2017-Nov-14 23:03N 49°21' W 124°21'0 0.0
2017-Nov-14 23:00N 49°21' W 124°21'0 0.0
2017-Nov-14 22:27N 49°21' W 124°21'0 0.0
2017-Nov-14 22:00N 49°21' W 124°21'0 0.0
2017-Nov-14 21:28N 49°21' W 124°21'0 0.0
2017-Nov-14 19:07N 49°21' W 124°21'0 0.0
2017-Nov-14 18:42N 49°21' W 124°21'0 0.0
2017-Nov-14 18:27N 49°21' W 124°21'0 0.0
2017-Nov-14 17:50N 49°21' W 124°21'0 0.0
2017-Nov-14 17:21N 49°21' W 124°21'0 0.0
2017-Nov-14 15:49N 49°21' W 124°21'0 0.0
2017-Nov-14 15:00N 49°21' W 124°21'0 0.0
2017-Nov-14 14:28N 49°21' W 124°21'0 0.0
2017-Nov-14 13:52N 49°21' W 124°21'0 0.0
2017-Nov-14 13:28N 49°21' W 124°21'0 0.0
2017-Nov-14 12:36N 49°21' W 124°21'0 0.0
2017-Nov-14 10:59N 49°21' W 124°21'0 0.0
2017-Nov-14 10:30N 49°21' W 124°21'0 0.0
2017-Nov-14 10:00N 49°21' W 124°21'0 0.0
2017-Nov-14 09:30N 49°21' W 124°21'0 0.0
2017-Nov-14 09:00N 49°21' W 124°21'0 0.0
2017-Nov-14 08:30N 49°21' W 124°21'0 0.0
2017-Nov-14 08:00N 49°21' W 124°21'0 0.0
2017-Nov-14 07:29N 49°21' W 124°21'0 0.0
2017-Nov-14 07:00N 49°21' W 124°21'0 0.0
2017-Nov-14 05:20N 49°21' W 124°21'0 0.0
2017-Nov-14 04:50N 49°21' W 124°21'0 0.0
2017-Nov-14 04:21N 49°21' W 124°21'0 0.0
2017-Nov-14 04:00N 49°21' W 124°21'0 0.0
2017-Nov-14 03:30N 49°21' W 124°21'0 0.0
2017-Nov-14 03:00N 49°21' W 124°21'0 0.0
2017-Nov-13 23:18N 49°21' W 124°21'0 0.0
2017-Nov-13 22:54N 49°21' W 124°21'0 0.0
2017-Nov-13 22:16N 49°21' W 124°21'0 0.0
2017-Nov-13 21:58N 49°21' W 124°21'0 0.0
2017-Nov-12 23:12N 49°21' W 124°21'0 0.0
2017-Nov-12 23:00N 49°21' W 124°21'0 0.0
2017-Nov-12 22:30N 49°21' W 124°21'0 0.0
2017-Nov-12 22:00N 49°21' W 124°21'0 0.0
2017-Nov-12 21:30N 49°21' W 124°21'0 0.0
2017-Nov-12 20:51N 49°21' W 124°21'0 0.0
2017-Nov-12 20:30N 49°21' W 124°21'0 0.0
2017-Nov-12 19:56N 49°21' W 124°21'0 0.0
2017-Nov-12 19:23N 49°21' W 124°21'0 0.0
2017-Nov-12 17:38N 49°21' W 124°21'0 0.0
2017-Nov-12 17:29N 49°21' W 124°21'0 0.0
2017-Nov-12 10:14N 49°21' W 124°21'0 0.0
2017-Nov-12 09:52N 49°21' W 124°21'0 0.0
2017-Nov-11 23:18N 49°21' W 124°21'0 0.0
2017-Nov-11 21:34N 49°21' W 124°21'0 0.0
2017-Nov-11 21:20N 49°21' W 124°21'0 0.0
2017-Nov-11 19:52N 49°21' W 124°21'0 0.0
2017-Nov-11 19:30N 49°21' W 124°21'0 0.0
2017-Nov-11 18:55N 49°21' W 124°21'0 0.0
2017-Nov-11 18:30N 49°21' W 124°21'0 0.0
2017-Nov-11 17:57N 49°21' W 124°21'0 0.0
2017-Nov-11 17:29N 49°21' W 124°21'0 0.0
2017-Nov-11 16:55N 49°21' W 124°21'0 0.0
2017-Nov-11 16:16N 49°21' W 124°21'0 0.0
2017-Nov-11 15:59N 49°21' W 124°21'0 0.0
2017-Nov-11 15:30N 49°21' W 124°21'0 0.0
2017-Nov-11 14:58N 49°21' W 124°21'0 0.0
2017-Nov-11 14:28N 49°21' W 124°21'0 0.0
2017-Nov-11 07:08N 49°21' W 124°21'0 0.0
2017-Nov-11 06:57N 49°21' W 124°21'0 0.0
2017-Nov-11 06:30N 49°21' W 124°21'0 0.0
2017-Nov-11 05:51N 49°21' W 124°21'0 0.0
2017-Nov-11 05:23N 49°21' W 124°21'0 0.0
2017-Nov-11 04:42N 49°21' W 124°21'0 0.0
2017-Nov-11 04:01N 49°21' W 124°21'0 0.0
2017-Nov-11 03:41N 49°21' W 124°21'0 0.0
2017-Nov-11 03:22N 49°21' W 124°21'0 0.0
2017-Nov-10 20:49N 49°21' W 124°21'0 0.0
2017-Nov-10 02:54N 49°21' W 124°21'0 0.0
2017-Nov-10 02:26N 49°21' W 124°21'0 0.0
2017-Nov-10 02:00N 49°21' W 124°21'0 0.0
2017-Nov-10 01:29N 49°21' W 124°21'0 0.0
2017-Nov-10 01:00N 49°21' W 124°21'0 0.0
2017-Nov-10 00:30N 49°21' W 124°21'0 0.3
2017-Nov-09 23:54N 49°21' W 124°21'3 7.0
2017-Nov-09 23:30N 49°23' W 124°19'0 0.7
2017-Nov-09 23:00N 49°24' W 124°19'2 4.7
2017-Nov-09 22:30N 49°24' W 124°22'3 6.2
2017-Nov-09 22:00N 49°26' W 124°26'3 6.3
2017-Nov-09 21:30N 49°26' W 124°31'2 3.9
2017-Nov-09 21:00N 49°25' W 124°29'  

Dump ship's entire track history